New Orleans Nas Jrb,Alvin Callender Field, Airport New Orleans US
ICAO: KNBG
IATA: NBG
Category: Medium
Scheduled Services: No

Elevation: 2 ft
TransAlt. 18000 ft.

Airport Communications:
APP/DEP:123.85
ATIS:27.62
NAVY NEW ORLEANS GND:121.6
USCG NEW ORLEANS AIR:38.18
BASE OPS:37.915
PMSV METRO:26.58
NAVY NEW ORLEANS TWR:123.8

KNBG Zoom In..

If you have problems with the map follow the link
https://www.worldairports.se/pages/airport.php?
ICAO=KNBG

Runways:

(A) RW 04 length 10000 ft width 200 ft
ILS 109.50 / hdg 44

(B) RW 14 length 6000 ft width 200 ft
---- / hdg 141

(C) RW 22 length 10000 ft width 200 ft
---- / hdg 224

(D) RW 32 length 6000 ft width 200 ft
---- / hdg 321

Location; KNBG
Day. 12 / Time. 23.55 Zulu
* Altimeter: 30.16
* Temperature: 12° c. 53.6°f.
* Wind from: 010° Speed 05 kn.
Dewpoint: 11° c.
Visibility: 9 Statute Miles.
Clouds: Overcast 700 ft.

KNBG 122355Z 01005KT 9SM OVC007 12/11 A3016 RMK AO2 SLP211 T01170106 10122 20111 58009 $


Wind From 010°
Speed 05 kn.

 
 
jpsmedia worldairports.se 2019   terms of use